sensor_id;sensor_type;location;lat;lon;timestamp;P1;durP1;ratioP1;P2;durP2;ratioP2
32094;SDS011;18608;53.688;10.748;2022-12-01T00:01:43;100.03;;;41.43;;
32094;SDS011;18608;53.688;10.748;2022-12-01T00:04:09;105.47;;;41.63;;
32094;SDS011;18608;53.688;10.748;2022-12-01T00:06:34;104.57;;;45.90;;
32094;SDS011;18608;53.688;10.748;2022-12-01T00:09:00;106.17;;;43.53;;
32094;SDS011;18608;53.688;10.748;2022-12-01T00:11:45;105.83;;;43.60;;
32094;SDS011;18608;53.688;10.748;2022-12-01T00:14:10;103.80;;;42.40;;
32094;SDS011;18608;53.688;10.748;2022-12-01T00:16:36;95.70;;;43.10;;
32094;SDS011;18608;53.688;10.748;2022-12-01T00:19:04;107.73;;;44.50;;
32094;SDS011;18608;53.688;10.748;2022-12-01T00:21:29;109.53;;;44.30;;
32094;SDS011;18608;53.688;10.748;2022-12-01T00:23:56;112.83;;;44.63;;
32094;SDS011;18608;53.688;10.748;2022-12-01T00:26:22;100.97;;;40.93;;
32094;SDS011;18608;53.688;10.748;2022-12-01T00:28:49;104.73;;;43.30;;
32094;SDS011;18608;53.688;10.748;2022-12-01T00:31:16;105.13;;;42.13;;
32094;SDS011;18608;53.688;10.748;2022-12-01T00:33:42;111.83;;;44.30;;
32094;SDS011;18608;53.688;10.748;2022-12-01T00:36:07;114.43;;;45.10;;
32094;SDS011;18608;53.688;10.748;2022-12-01T00:38:33;110.50;;;45.87;;
32094;SDS011;18608;53.688;10.748;2022-12-01T00:40:59;99.90;;;42.60;;
32094;SDS011;18608;53.688;10.748;2022-12-01T00:43:26;124.97;;;45.77;;
32094;SDS011;18608;53.688;10.748;2022-12-01T00:45:51;120.27;;;43.83;;
32094;SDS011;18608;53.688;10.748;2022-12-01T00:48:17;115.87;;;42.80;;
32094;SDS011;18608;53.688;10.748;2022-12-01T00:50:43;108.53;;;45.10;;
32094;SDS011;18608;53.688;10.748;2022-12-01T00:53:09;109.90;;;42.97;;
32094;SDS011;18608;53.688;10.748;2022-12-01T00:55:34;99.70;;;42.17;;
32094;SDS011;18608;53.688;10.748;2022-12-01T00:58:00;102.90;;;41.87;;
32094;SDS011;18608;53.688;10.748;2022-12-01T01:00:26;88.00;;;32.10;;
32094;SDS011;18608;53.688;10.748;2022-12-01T01:02:51;105.63;;;43.63;;
32094;SDS011;18608;53.688;10.748;2022-12-01T01:05:17;104.40;;;40.40;;
32094;SDS011;18608;53.688;10.748;2022-12-01T01:07:43;93.43;;;40.23;;
32094;SDS011;18608;53.688;10.748;2022-12-01T01:10:08;104.83;;;42.20;;
32094;SDS011;18608;53.688;10.748;2022-12-01T01:12:34;130.73;;;45.07;;
32094;SDS011;18608;53.688;10.748;2022-12-01T01:15:00;125.70;;;44.63;;
32094;SDS011;18608;53.688;10.748;2022-12-01T01:17:26;107.50;;;42.00;;
32094;SDS011;18608;53.688;10.748;2022-12-01T01:19:52;107.40;;;41.97;;
32094;SDS011;18608;53.688;10.748;2022-12-01T01:22:17;102.70;;;41.07;;
32094;SDS011;18608;53.688;10.748;2022-12-01T01:24:43;120.83;;;41.53;;
32094;SDS011;18608;53.688;10.748;2022-12-01T01:27:09;105.67;;;43.90;;
32094;SDS011;18608;53.688;10.748;2022-12-01T01:29:35;104.83;;;43.17;;
32094;SDS011;18608;53.688;10.748;2022-12-01T01:32:01;110.00;;;43.60;;
32094;SDS011;18608;53.688;10.748;2022-12-01T01:34:28;111.73;;;43.50;;
32094;SDS011;18608;53.688;10.748;2022-12-01T01:36:53;86.97;;;37.00;;
32094;SDS011;18608;53.688;10.748;2022-12-01T01:39:19;120.47;;;41.73;;
32094;SDS011;18608;53.688;10.748;2022-12-01T01:41:45;112.60;;;44.27;;
32094;SDS011;18608;53.688;10.748;2022-12-01T01:47:10;122.70;;;46.93;;
32094;SDS011;18608;53.688;10.748;2022-12-01T01:49:37;126.80;;;46.87;;
32094;SDS011;18608;53.688;10.748;2022-12-01T01:52:04;118.30;;;44.30;;
32094;SDS011;18608;53.688;10.748;2022-12-01T01:54:32;126.47;;;46.27;;
32094;SDS011;18608;53.688;10.748;2022-12-01T01:57:01;119.77;;;45.67;;
32094;SDS011;18608;53.688;10.748;2022-12-01T01:59:33;125.53;;;45.37;;
32094;SDS011;18608;53.688;10.748;2022-12-01T02:02:04;121.90;;;45.27;;
32094;SDS011;18608;53.688;10.748;2022-12-01T02:04:36;115.77;;;45.87;;
32094;SDS011;18608;53.688;10.748;2022-12-01T02:07:04;122.23;;;49.10;;
32094;SDS011;18608;53.688;10.748;2022-12-01T02:09:31;110.67;;;48.10;;
32094;SDS011;18608;53.688;10.748;2022-12-01T02:12:44;139.10;;;51.10;;
32094;SDS011;18608;53.688;10.748;2022-12-01T02:23:51;124.97;;;48.80;;
32094;SDS011;18608;53.688;10.748;2022-12-01T02:35:12;115.47;;;43.80;;
32094;SDS011;18608;53.688;10.748;2022-12-01T02:43:31;123.17;;;44.40;;
32094;SDS011;18608;53.688;10.748;2022-12-01T02:48:45;116.00;;;44.43;;
32094;SDS011;18608;53.688;10.748;2022-12-01T02:51:16;115.73;;;44.07;;
32094;SDS011;18608;53.688;10.748;2022-12-01T02:53:42;142.67;;;46.13;;
32094;SDS011;18608;53.688;10.748;2022-12-01T02:56:09;117.70;;;45.37;;
32094;SDS011;18608;53.688;10.748;2022-12-01T02:58:37;134.00;;;45.37;;
32094;SDS011;18608;53.688;10.748;2022-12-01T03:01:13;109.40;;;42.30;;
32094;SDS011;18608;53.688;10.748;2022-12-01T03:03:46;113.60;;;41.23;;
32094;SDS011;18608;53.688;10.748;2022-12-01T03:12:09;110.43;;;43.77;;
32094;SDS011;18608;53.688;10.748;2022-12-01T03:20:40;114.47;;;40.43;;
32094;SDS011;18608;53.688;10.748;2022-12-01T03:23:11;101.20;;;40.70;;
32094;SDS011;18608;53.688;10.748;2022-12-01T03:25:40;110.03;;;45.00;;
32094;SDS011;18608;53.688;10.748;2022-12-01T03:28:09;108.00;;;38.00;;
32094;SDS011;18608;53.688;10.748;2022-12-01T03:30:38;116.13;;;43.87;;
32094;SDS011;18608;53.688;10.748;2022-12-01T03:33:08;125.50;;;43.77;;
32094;SDS011;18608;53.688;10.748;2022-12-01T03:35:53;137.40;;;45.77;;
32094;SDS011;18608;53.688;10.748;2022-12-01T03:38:24;101.20;;;41.37;;
32094;SDS011;18608;53.688;10.748;2022-12-01T03:40:52;110.00;;;42.53;;
32094;SDS011;18608;53.688;10.748;2022-12-01T03:43:33;127.00;;;45.50;;
32094;SDS011;18608;53.688;10.748;2022-12-01T03:46:10;109.53;;;42.60;;
32094;SDS011;18608;53.688;10.748;2022-12-01T03:48:41;101.93;;;44.43;;
32094;SDS011;18608;53.688;10.748;2022-12-01T03:51:12;94.57;;;36.50;;
32094;SDS011;18608;53.688;10.748;2022-12-01T03:54:06;134.70;;;46.00;;
32094;SDS011;18608;53.688;10.748;2022-12-01T03:56:42;121.23;;;43.00;;
32094;SDS011;18608;53.688;10.748;2022-12-01T03:59:15;109.10;;;40.27;;
32094;SDS011;18608;53.688;10.748;2022-12-01T04:01:44;94.73;;;36.40;;
32094;SDS011;18608;53.688;10.748;2022-12-01T04:04:10;100.07;;;35.37;;
32094;SDS011;18608;53.688;10.748;2022-12-01T04:06:38;116.83;;;44.80;;
32094;SDS011;18608;53.688;10.748;2022-12-01T04:09:06;98.53;;;39.80;;
32094;SDS011;18608;53.688;10.748;2022-12-01T04:11:32;102.13;;;40.70;;
32094;SDS011;18608;53.688;10.748;2022-12-01T04:14:16;106.60;;;42.80;;
32094;SDS011;18608;53.688;10.748;2022-12-01T04:16:41;119.03;;;40.60;;
32094;SDS011;18608;53.688;10.748;2022-12-01T04:19:07;93.17;;;39.10;;
32094;SDS011;18608;53.688;10.748;2022-12-01T04:21:33;109.27;;;40.73;;
32094;SDS011;18608;53.688;10.748;2022-12-01T04:23:59;93.37;;;38.77;;
32094;SDS011;18608;53.688;10.748;2022-12-01T04:26:25;96.80;;;37.67;;
32094;SDS011;18608;53.688;10.748;2022-12-01T04:28:51;100.03;;;38.93;;
32094;SDS011;18608;53.688;10.748;2022-12-01T04:31:17;106.27;;;43.07;;
32094;SDS011;18608;53.688;10.748;2022-12-01T04:33:43;110.53;;;43.77;;
32094;SDS011;18608;53.688;10.748;2022-12-01T04:36:08;101.90;;;38.47;;
32094;SDS011;18608;53.688;10.748;2022-12-01T04:38:34;114.90;;;38.87;;
32094;SDS011;18608;53.688;10.748;2022-12-01T04:41:06;111.10;;;42.63;;
32094;SDS011;18608;53.688;10.748;2022-12-01T04:43:33;118.80;;;43.20;;
32094;SDS011;18608;53.688;10.748;2022-12-01T04:45:58;119.80;;;43.77;;
32094;SDS011;18608;53.688;10.748;2022-12-01T04:48:24;96.90;;;34.17;;
32094;SDS011;18608;53.688;10.748;2022-12-01T04:50:50;116.17;;;40.40;;
32094;SDS011;18608;53.688;10.748;2022-12-01T04:53:15;95.70;;;34.53;;
32094;SDS011;18608;53.688;10.748;2022-12-01T04:55:41;108.07;;;42.30;;
32094;SDS011;18608;53.688;10.748;2022-12-01T04:58:06;114.63;;;40.93;;
32094;SDS011;18608;53.688;10.748;2022-12-01T05:00:32;119.93;;;42.80;;
32094;SDS011;18608;53.688;10.748;2022-12-01T05:02:58;109.33;;;41.57;;
32094;SDS011;18608;53.688;10.748;2022-12-01T05:05:24;90.17;;;33.37;;
32094;SDS011;18608;53.688;10.748;2022-12-01T05:07:50;123.70;;;44.87;;
32094;SDS011;18608;53.688;10.748;2022-12-01T05:10:15;107.73;;;40.23;;
32094;SDS011;18608;53.688;10.748;2022-12-01T05:12:43;113.07;;;40.00;;
32094;SDS011;18608;53.688;10.748;2022-12-01T05:15:10;101.67;;;38.23;;
32094;SDS011;18608;53.688;10.748;2022-12-01T05:17:36;102.33;;;41.47;;
32094;SDS011;18608;53.688;10.748;2022-12-01T05:20:02;97.70;;;34.67;;
32094;SDS011;18608;53.688;10.748;2022-12-01T05:22:47;92.97;;;31.03;;
32094;SDS011;18608;53.688;10.748;2022-12-01T05:25:12;106.47;;;39.00;;
32094;SDS011;18608;53.688;10.748;2022-12-01T05:27:38;106.10;;;41.00;;
32094;SDS011;18608;53.688;10.748;2022-12-01T05:30:04;102.27;;;38.83;;
32094;SDS011;18608;53.688;10.748;2022-12-01T05:32:33;101.23;;;37.80;;
32094;SDS011;18608;53.688;10.748;2022-12-01T05:34:58;88.27;;;34.03;;
32094;SDS011;18608;53.688;10.748;2022-12-01T05:37:24;111.67;;;38.60;;
32094;SDS011;18608;53.688;10.748;2022-12-01T05:39:50;110.67;;;36.93;;
32094;SDS011;18608;53.688;10.748;2022-12-01T05:42:15;115.60;;;38.93;;
32094;SDS011;18608;53.688;10.748;2022-12-01T05:44:41;118.90;;;38.73;;
32094;SDS011;18608;53.688;10.748;2022-12-01T05:47:06;120.17;;;37.47;;
32094;SDS011;18608;53.688;10.748;2022-12-01T05:49:32;96.87;;;37.00;;
32094;SDS011;18608;53.688;10.748;2022-12-01T05:51:57;90.53;;;36.87;;
32094;SDS011;18608;53.688;10.748;2022-12-01T05:54:23;100.80;;;37.70;;
32094;SDS011;18608;53.688;10.748;2022-12-01T05:56:49;104.30;;;35.20;;
32094;SDS011;18608;53.688;10.748;2022-12-01T05:59:14;102.37;;;33.90;;
32094;SDS011;18608;53.688;10.748;2022-12-01T06:01:40;110.37;;;40.23;;
32094;SDS011;18608;53.688;10.748;2022-12-01T06:04:06;118.47;;;39.63;;
32094;SDS011;18608;53.688;10.748;2022-12-01T06:06:32;100.80;;;39.80;;
32094;SDS011;18608;53.688;10.748;2022-12-01T06:08:58;106.03;;;35.73;;
32094;SDS011;18608;53.688;10.748;2022-12-01T06:11:23;107.70;;;38.50;;
32094;SDS011;18608;53.688;10.748;2022-12-01T06:13:49;102.90;;;34.40;;
32094;SDS011;18608;53.688;10.748;2022-12-01T06:16:14;116.70;;;39.27;;
32094;SDS011;18608;53.688;10.748;2022-12-01T06:18:40;111.30;;;39.27;;
32094;SDS011;18608;53.688;10.748;2022-12-01T06:21:06;86.07;;;29.53;;
32094;SDS011;18608;53.688;10.748;2022-12-01T06:23:31;104.27;;;35.40;;
32094;SDS011;18608;53.688;10.748;2022-12-01T06:25:57;94.80;;;35.10;;
32094;SDS011;18608;53.688;10.748;2022-12-01T06:28:23;112.60;;;39.60;;
32094;SDS011;18608;53.688;10.748;2022-12-01T06:30:48;108.23;;;38.80;;
32094;SDS011;18608;53.688;10.748;2022-12-01T06:33:14;105.20;;;34.40;;
32094;SDS011;18608;53.688;10.748;2022-12-01T06:35:40;121.73;;;38.30;;
32094;SDS011;18608;53.688;10.748;2022-12-01T06:38:05;115.93;;;37.60;;
32094;SDS011;18608;53.688;10.748;2022-12-01T06:40:31;93.87;;;32.60;;
32094;SDS011;18608;53.688;10.748;2022-12-01T06:43:00;92.43;;;31.20;;
32094;SDS011;18608;53.688;10.748;2022-12-01T06:45:27;98.80;;;40.10;;
32094;SDS011;18608;53.688;10.748;2022-12-01T06:47:54;122.33;;;35.90;;
32094;SDS011;18608;53.688;10.748;2022-12-01T06:50:20;104.73;;;35.20;;
32094;SDS011;18608;53.688;10.748;2022-12-01T06:52:46;116.13;;;36.07;;
32094;SDS011;18608;53.688;10.748;2022-12-01T06:55:11;97.03;;;33.00;;
32094;SDS011;18608;53.688;10.748;2022-12-01T06:57:38;112.97;;;36.70;;
32094;SDS011;18608;53.688;10.748;2022-12-01T07:00:04;106.37;;;37.30;;
32094;SDS011;18608;53.688;10.748;2022-12-01T07:02:30;79.90;;;27.87;;
32094;SDS011;18608;53.688;10.748;2022-12-01T07:04:56;94.80;;;33.00;;
32094;SDS011;18608;53.688;10.748;2022-12-01T07:07:21;99.53;;;34.20;;
32094;SDS011;18608;53.688;10.748;2022-12-01T07:09:48;81.17;;;31.53;;
32094;SDS011;18608;53.688;10.748;2022-12-01T07:12:13;93.03;;;30.97;;
32094;SDS011;18608;53.688;10.748;2022-12-01T07:14:39;89.50;;;31.20;;
32094;SDS011;18608;53.688;10.748;2022-12-01T07:17:06;100.23;;;33.50;;
32094;SDS011;18608;53.688;10.748;2022-12-01T07:19:33;70.17;;;27.80;;
32094;SDS011;18608;53.688;10.748;2022-12-01T07:21:59;99.77;;;33.00;;
32094;SDS011;18608;53.688;10.748;2022-12-01T07:24:24;79.77;;;25.60;;
32094;SDS011;18608;53.688;10.748;2022-12-01T07:26:50;76.50;;;28.30;;
32094;SDS011;18608;53.688;10.748;2022-12-01T07:29:15;98.10;;;33.97;;
32094;SDS011;18608;53.688;10.748;2022-12-01T07:31:41;96.53;;;29.03;;
32094;SDS011;18608;53.688;10.748;2022-12-01T07:34:09;63.50;;;22.30;;
32094;SDS011;18608;53.688;10.748;2022-12-01T07:36:36;98.23;;;31.20;;
32094;SDS011;18608;53.688;10.748;2022-12-01T07:39:05;87.67;;;28.17;;
32094;SDS011;18608;53.688;10.748;2022-12-01T07:41:32;80.00;;;28.97;;
32094;SDS011;18608;53.688;10.748;2022-12-01T07:43:59;72.27;;;27.60;;
32094;SDS011;18608;53.688;10.748;2022-12-01T07:46:25;62.60;;;21.10;;
32094;SDS011;18608;53.688;10.748;2022-12-01T07:48:51;63.80;;;23.90;;
32094;SDS011;18608;53.688;10.748;2022-12-01T07:51:19;77.43;;;24.57;;
32094;SDS011;18608;53.688;10.748;2022-12-01T07:53:47;77.33;;;25.77;;
32094;SDS011;18608;53.688;10.748;2022-12-01T07:56:14;75.20;;;26.53;;
32094;SDS011;18608;53.688;10.748;2022-12-01T07:58:40;72.30;;;22.97;;
32094;SDS011;18608;53.688;10.748;2022-12-01T08:01:07;80.37;;;27.63;;
32094;SDS011;18608;53.688;10.748;2022-12-01T08:03:34;58.30;;;22.60;;
32094;SDS011;18608;53.688;10.748;2022-12-01T08:06:00;84.57;;;27.27;;
32094;SDS011;18608;53.688;10.748;2022-12-01T08:08:27;76.90;;;29.43;;
32094;SDS011;18608;53.688;10.748;2022-12-01T08:10:54;71.13;;;23.90;;
32094;SDS011;18608;53.688;10.748;2022-12-01T08:13:24;76.43;;;27.00;;
32094;SDS011;18608;53.688;10.748;2022-12-01T08:15:50;94.70;;;29.80;;
32094;SDS011;18608;53.688;10.748;2022-12-01T08:18:15;88.53;;;29.40;;
32094;SDS011;18608;53.688;10.748;2022-12-01T08:20:41;87.73;;;27.67;;
32094;SDS011;18608;53.688;10.748;2022-12-01T08:23:07;75.33;;;23.13;;
32094;SDS011;18608;53.688;10.748;2022-12-01T08:25:32;71.57;;;27.23;;
32094;SDS011;18608;53.688;10.748;2022-12-01T08:27:58;65.23;;;22.63;;
32094;SDS011;18608;53.688;10.748;2022-12-01T08:30:24;60.60;;;21.80;;
32094;SDS011;18608;53.688;10.748;2022-12-01T08:32:54;63.83;;;22.93;;
32094;SDS011;18608;53.688;10.748;2022-12-01T08:35:21;73.23;;;26.57;;
32094;SDS011;18608;53.688;10.748;2022-12-01T08:37:50;66.60;;;24.13;;
32094;SDS011;18608;53.688;10.748;2022-12-01T08:40:16;69.97;;;24.47;;
32094;SDS011;18608;53.688;10.748;2022-12-01T08:42:41;80.90;;;27.83;;
32094;SDS011;18608;53.688;10.748;2022-12-01T08:45:07;72.27;;;25.70;;
32094;SDS011;18608;53.688;10.748;2022-12-01T08:47:33;69.07;;;25.10;;
32094;SDS011;18608;53.688;10.748;2022-12-01T08:49:59;71.90;;;24.93;;
32094;SDS011;18608;53.688;10.748;2022-12-01T08:52:24;82.07;;;25.07;;
32094;SDS011;18608;53.688;10.748;2022-12-01T08:54:55;77.90;;;24.90;;
32094;SDS011;18608;53.688;10.748;2022-12-01T08:57:20;71.70;;;24.73;;
32094;SDS011;18608;53.688;10.748;2022-12-01T08:59:46;82.13;;;25.37;;
32094;SDS011;18608;53.688;10.748;2022-12-01T09:02:13;43.07;;;16.10;;
32094;SDS011;18608;53.688;10.748;2022-12-01T09:04:40;85.37;;;24.23;;
32094;SDS011;18608;53.688;10.748;2022-12-01T09:07:08;74.97;;;26.50;;
32094;SDS011;18608;53.688;10.748;2022-12-01T09:09:35;67.93;;;23.50;;
32094;SDS011;18608;53.688;10.748;2022-12-01T09:12:01;54.63;;;16.70;;
32094;SDS011;18608;53.688;10.748;2022-12-01T09:14:27;70.50;;;24.40;;
32094;SDS011;18608;53.688;10.748;2022-12-01T09:16:52;63.23;;;19.80;;
32094;SDS011;18608;53.688;10.748;2022-12-01T09:19:18;81.30;;;25.33;;
32094;SDS011;18608;53.688;10.748;2022-12-01T09:21:45;78.13;;;26.00;;
32094;SDS011;18608;53.688;10.748;2022-12-01T09:24:12;90.80;;;26.17;;
32094;SDS011;18608;53.688;10.748;2022-12-01T09:26:39;67.03;;;23.77;;
32094;SDS011;18608;53.688;10.748;2022-12-01T09:29:06;85.40;;;28.67;;
32094;SDS011;18608;53.688;10.748;2022-12-01T09:31:34;94.07;;;31.60;;
32094;SDS011;18608;53.688;10.748;2022-12-01T09:34:02;111.57;;;29.83;;
32094;SDS011;18608;53.688;10.748;2022-12-01T09:36:30;75.73;;;26.17;;
32094;SDS011;18608;53.688;10.748;2022-12-01T09:38:56;93.77;;;30.47;;
32094;SDS011;18608;53.688;10.748;2022-12-01T09:41:27;118.77;;;27.63;;
32094;SDS011;18608;53.688;10.748;2022-12-01T09:46:55;81.97;;;28.17;;
32094;SDS011;18608;53.688;10.748;2022-12-01T09:49:25;99.13;;;27.03;;
32094;SDS011;18608;53.688;10.748;2022-12-01T09:52:26;70.60;;;23.53;;
32094;SDS011;18608;53.688;10.748;2022-12-01T09:54:54;94.53;;;27.80;;
32094;SDS011;18608;53.688;10.748;2022-12-01T09:59:56;106.87;;;28.03;;
32094;SDS011;18608;53.688;10.748;2022-12-01T10:02:26;90.77;;;25.43;;
32094;SDS011;18608;53.688;10.748;2022-12-01T10:05:16;89.77;;;28.17;;
32094;SDS011;18608;53.688;10.748;2022-12-01T10:10:27;107.67;;;27.00;;
32094;SDS011;18608;53.688;10.748;2022-12-01T10:12:53;54.93;;;20.13;;
32094;SDS011;18608;53.688;10.748;2022-12-01T10:20:46;62.53;;;17.93;;
32094;SDS011;18608;53.688;10.748;2022-12-01T10:23:57;92.63;;;27.70;;
32094;SDS011;18608;53.688;10.748;2022-12-01T10:26:31;109.23;;;27.80;;
32094;SDS011;18608;53.688;10.748;2022-12-01T10:29:11;90.60;;;28.37;;
32094;SDS011;18608;53.688;10.748;2022-12-01T10:32:19;110.47;;;28.87;;
32094;SDS011;18608;53.688;10.748;2022-12-01T10:34:54;82.30;;;23.30;;
32094;SDS011;18608;53.688;10.748;2022-12-01T10:37:22;105.17;;;26.07;;
32094;SDS011;18608;53.688;10.748;2022-12-01T10:39:51;73.50;;;22.80;;
32094;SDS011;18608;53.688;10.748;2022-12-01T10:45:26;79.73;;;25.70;;
32094;SDS011;18608;53.688;10.748;2022-12-01T10:50:40;69.57;;;22.33;;
32094;SDS011;18608;53.688;10.748;2022-12-01T10:53:19;80.23;;;21.27;;
32094;SDS011;18608;53.688;10.748;2022-12-01T10:58:38;59.33;;;18.67;;
32094;SDS011;18608;53.688;10.748;2022-12-01T11:01:14;62.87;;;19.70;;
32094;SDS011;18608;53.688;10.748;2022-12-01T11:04:06;61.27;;;21.33;;
32094;SDS011;18608;53.688;10.748;2022-12-01T11:06:47;58.30;;;21.30;;
32094;SDS011;18608;53.688;10.748;2022-12-01T11:09:22;86.43;;;23.00;;
32094;SDS011;18608;53.688;10.748;2022-12-01T11:11:56;71.00;;;19.50;;
32094;SDS011;18608;53.688;10.748;2022-12-01T11:14:26;60.87;;;21.13;;
32094;SDS011;18608;53.688;10.748;2022-12-01T11:17:14;69.27;;;19.83;;
32094;SDS011;18608;53.688;10.748;2022-12-01T11:19:48;70.50;;;19.37;;
32094;SDS011;18608;53.688;10.748;2022-12-01T11:22:21;50.17;;;19.70;;
32094;SDS011;18608;53.688;10.748;2022-12-01T11:27:23;55.60;;;18.70;;
32094;SDS011;18608;53.688;10.748;2022-12-01T11:30:04;62.37;;;19.23;;
32094;SDS011;18608;53.688;10.748;2022-12-01T11:32:36;69.20;;;20.13;;
32094;SDS011;18608;53.688;10.748;2022-12-01T11:35:05;54.77;;;17.50;;
32094;SDS011;18608;53.688;10.748;2022-12-01T11:37:36;53.83;;;17.83;;
32094;SDS011;18608;53.688;10.748;2022-12-01T11:42:49;55.40;;;18.73;;
32094;SDS011;18608;53.688;10.748;2022-12-01T11:47:59;46.27;;;17.90;;
32094;SDS011;18608;53.688;10.748;2022-12-01T11:50:34;48.70;;;17.87;;
32094;SDS011;18608;53.688;10.748;2022-12-01T11:53:01;45.10;;;16.33;;
32094;SDS011;18608;53.688;10.748;2022-12-01T11:55:29;53.50;;;17.13;;
32094;SDS011;18608;53.688;10.748;2022-12-01T11:58:00;56.47;;;16.40;;
32094;SDS011;18608;53.688;10.748;2022-12-01T12:00:29;48.90;;;15.87;;
32094;SDS011;18608;53.688;10.748;2022-12-01T12:09:16;49.93;;;17.93;;
32094;SDS011;18608;53.688;10.748;2022-12-01T12:16:45;54.60;;;21.20;;
32094;SDS011;18608;53.688;10.748;2022-12-01T12:19:52;56.10;;;17.83;;
32094;SDS011;18608;53.688;10.748;2022-12-01T12:25:38;39.27;;;18.67;;
32094;SDS011;18608;53.688;10.748;2022-12-01T12:28:26;40.70;;;16.10;;
32094;SDS011;18608;53.688;10.748;2022-12-01T12:31:11;45.50;;;16.00;;
32094;SDS011;18608;53.688;10.748;2022-12-01T12:48:10;56.90;;;19.10;;
32094;SDS011;18608;53.688;10.748;2022-12-01T12:53:18;61.17;;;19.90;;
32094;SDS011;18608;53.688;10.748;2022-12-01T12:55:50;52.33;;;17.73;;
32094;SDS011;18608;53.688;10.748;2022-12-01T12:58:22;31.27;;;11.37;;
32094;SDS011;18608;53.688;10.748;2022-12-01T13:00:59;59.80;;;18.10;;
32094;SDS011;18608;53.688;10.748;2022-12-01T13:03:30;61.80;;;19.50;;
32094;SDS011;18608;53.688;10.748;2022-12-01T13:06:09;55.77;;;16.53;;
32094;SDS011;18608;53.688;10.748;2022-12-01T13:08:48;67.27;;;18.20;;
32094;SDS011;18608;53.688;10.748;2022-12-01T13:11:23;59.27;;;18.30;;
32094;SDS011;18608;53.688;10.748;2022-12-01T13:14:34;63.93;;;19.70;;
32094;SDS011;18608;53.688;10.748;2022-12-01T13:17:22;54.87;;;19.27;;
32094;SDS011;18608;53.688;10.748;2022-12-01T13:19:50;60.33;;;20.83;;
32094;SDS011;18608;53.688;10.748;2022-12-01T13:22:16;86.30;;;23.10;;
32094;SDS011;18608;53.688;10.748;2022-12-01T13:24:45;69.33;;;20.80;;
32094;SDS011;18608;53.688;10.748;2022-12-01T13:27:15;83.07;;;24.03;;
32094;SDS011;18608;53.688;10.748;2022-12-01T13:29:45;60.33;;;21.03;;
32094;SDS011;18608;53.688;10.748;2022-12-01T13:32:24;86.77;;;24.23;;
32094;SDS011;18608;53.688;10.748;2022-12-01T13:34:51;69.07;;;22.13;;
32094;SDS011;18608;53.688;10.748;2022-12-01T13:37:24;69.73;;;20.77;;
32094;SDS011;18608;53.688;10.748;2022-12-01T13:40:09;81.17;;;24.00;;
32094;SDS011;18608;53.688;10.748;2022-12-01T13:45:21;76.50;;;24.20;;
32094;SDS011;18608;53.688;10.748;2022-12-01T13:51:00;64.93;;;21.27;;
32094;SDS011;18608;53.688;10.748;2022-12-01T13:58:26;86.30;;;26.93;;
32094;SDS011;18608;53.688;10.748;2022-12-01T14:03:54;80.73;;;27.70;;
32094;SDS011;18608;53.688;10.748;2022-12-01T14:06:26;88.73;;;25.33;;
32094;SDS011;18608;53.688;10.748;2022-12-01T14:08:57;95.20;;;25.93;;
32094;SDS011;18608;53.688;10.748;2022-12-01T14:11:25;94.90;;;27.00;;
32094;SDS011;18608;53.688;10.748;2022-12-01T14:16:54;58.37;;;20.07;;
32094;SDS011;18608;53.688;10.748;2022-12-01T14:25:33;97.27;;;25.17;;
32094;SDS011;18608;53.688;10.748;2022-12-01T14:28:00;60.43;;;22.10;;
32094;SDS011;18608;53.688;10.748;2022-12-01T14:38:37;63.77;;;22.60;;
32094;SDS011;18608;53.688;10.748;2022-12-01T14:41:09;92.13;;;24.37;;
32094;SDS011;18608;53.688;10.748;2022-12-01T14:43:39;78.70;;;22.97;;
32094;SDS011;18608;53.688;10.748;2022-12-01T14:46:25;97.43;;;28.30;;
32094;SDS011;18608;53.688;10.748;2022-12-01T14:48:53;78.67;;;24.00;;
32094;SDS011;18608;53.688;10.748;2022-12-01T14:53:51;63.70;;;21.10;;
32094;SDS011;18608;53.688;10.748;2022-12-01T14:56:19;74.93;;;25.67;;
32094;SDS011;18608;53.688;10.748;2022-12-01T14:58:57;78.07;;;22.57;;
32094;SDS011;18608;53.688;10.748;2022-12-01T15:01:31;78.13;;;24.50;;
32094;SDS011;18608;53.688;10.748;2022-12-01T15:04:01;40.80;;;15.20;;
32094;SDS011;18608;53.688;10.748;2022-12-01T15:06:29;75.17;;;20.13;;
32094;SDS011;18608;53.688;10.748;2022-12-01T15:11:41;82.20;;;24.83;;
32094;SDS011;18608;53.688;10.748;2022-12-01T15:17:01;50.70;;;20.70;;
32094;SDS011;18608;53.688;10.748;2022-12-01T15:19:36;72.97;;;22.50;;
32094;SDS011;18608;53.688;10.748;2022-12-01T15:22:05;75.43;;;21.33;;
32094;SDS011;18608;53.688;10.748;2022-12-01T15:24:41;63.57;;;21.03;;
32094;SDS011;18608;53.688;10.748;2022-12-01T15:27:24;62.67;;;23.10;;
32094;SDS011;18608;53.688;10.748;2022-12-01T15:29:50;56.93;;;22.30;;
32094;SDS011;18608;53.688;10.748;2022-12-01T15:32:16;63.80;;;22.70;;
32094;SDS011;18608;53.688;10.748;2022-12-01T15:34:44;66.07;;;22.60;;
32094;SDS011;18608;53.688;10.748;2022-12-01T15:37:12;71.50;;;24.80;;
32094;SDS011;18608;53.688;10.748;2022-12-01T15:39:49;69.70;;;22.87;;
32094;SDS011;18608;53.688;10.748;2022-12-01T15:42:28;80.23;;;26.00;;
32094;SDS011;18608;53.688;10.748;2022-12-01T15:45:11;85.07;;;22.57;;
32094;SDS011;18608;53.688;10.748;2022-12-01T15:50:58;74.07;;;26.97;;
32094;SDS011;18608;53.688;10.748;2022-12-01T15:52:57;73.77;;;25.73;;
32094;SDS011;18608;53.688;10.748;2022-12-01T15:55:32;70.40;;;27.70;;
32094;SDS011;18608;53.688;10.748;2022-12-01T15:58:00;81.40;;;25.97;;
32094;SDS011;18608;53.688;10.748;2022-12-01T16:00:30;80.83;;;26.67;;
32094;SDS011;18608;53.688;10.748;2022-12-01T16:02:56;90.40;;;26.20;;
32094;SDS011;18608;53.688;10.748;2022-12-01T16:05:30;64.90;;;23.47;;
32094;SDS011;18608;53.688;10.748;2022-12-01T16:08:18;99.50;;;27.80;;
32094;SDS011;18608;53.688;10.748;2022-12-01T16:10:46;90.53;;;26.77;;
32094;SDS011;18608;53.688;10.748;2022-12-01T16:13:34;84.23;;;25.13;;
32094;SDS011;18608;53.688;10.748;2022-12-01T16:16:18;61.93;;;22.90;;
32094;SDS011;18608;53.688;10.748;2022-12-01T16:21:32;74.70;;;23.50;;
32094;SDS011;18608;53.688;10.748;2022-12-01T16:24:25;78.20;;;24.77;;
32094;SDS011;18608;53.688;10.748;2022-12-01T16:27:21;61.70;;;20.83;;
32094;SDS011;18608;53.688;10.748;2022-12-01T16:29:58;69.50;;;22.97;;
32094;SDS011;18608;53.688;10.748;2022-12-01T16:35:05;76.17;;;25.33;;
32094;SDS011;18608;53.688;10.748;2022-12-01T16:37:48;73.97;;;22.30;;
32094;SDS011;18608;53.688;10.748;2022-12-01T16:40:14;57.00;;;23.60;;
32094;SDS011;18608;53.688;10.748;2022-12-01T16:42:40;72.67;;;25.43;;
32094;SDS011;18608;53.688;10.748;2022-12-01T16:45:09;67.80;;;25.10;;
32094;SDS011;18608;53.688;10.748;2022-12-01T16:47:38;72.77;;;26.43;;
32094;SDS011;18608;53.688;10.748;2022-12-01T16:50:04;79.30;;;26.10;;